sensor_id;sensor_type;location;lat;lon;timestamp;P1;durP1;ratioP1;P2;durP2;ratioP2
24859;SDS011;12936;52.006;4.350;2023-05-07T00:01:29;27.58;;;20.30;;
24859;SDS011;12936;52.006;4.350;2023-05-07T00:03:58;34.80;;;22.00;;
24859;SDS011;12936;52.006;4.350;2023-05-07T00:06:28;29.02;;;21.00;;
24859;SDS011;12936;52.006;4.350;2023-05-07T00:08:58;30.65;;;20.95;;
24859;SDS011;12936;52.006;4.350;2023-05-07T00:11:27;30.17;;;21.42;;
24859;SDS011;12936;52.006;4.350;2023-05-07T00:13:55;30.55;;;20.77;;
24859;SDS011;12936;52.006;4.350;2023-05-07T00:16:24;27.70;;;20.13;;
24859;SDS011;12936;52.006;4.350;2023-05-07T00:18:52;34.20;;;21.15;;
24859;SDS011;12936;52.006;4.350;2023-05-07T00:21:21;30.80;;;21.67;;
24859;SDS011;12936;52.006;4.350;2023-05-07T00:23:49;29.55;;;21.25;;
24859;SDS011;12936;52.006;4.350;2023-05-07T00:26:18;29.45;;;20.40;;
24859;SDS011;12936;52.006;4.350;2023-05-07T00:28:47;30.65;;;20.88;;
24859;SDS011;12936;52.006;4.350;2023-05-07T00:31:15;29.70;;;21.73;;
24859;SDS011;12936;52.006;4.350;2023-05-07T00:33:43;28.90;;;20.45;;
24859;SDS011;12936;52.006;4.350;2023-05-07T00:36:11;28.40;;;21.52;;
24859;SDS011;12936;52.006;4.350;2023-05-07T00:38:39;28.92;;;21.35;;
24859;SDS011;12936;52.006;4.350;2023-05-07T00:41:09;26.73;;;20.60;;
24859;SDS011;12936;52.006;4.350;2023-05-07T00:43:39;27.58;;;20.42;;
24859;SDS011;12936;52.006;4.350;2023-05-07T00:46:07;29.90;;;21.25;;
24859;SDS011;12936;52.006;4.350;2023-05-07T00:48:36;28.75;;;20.33;;
24859;SDS011;12936;52.006;4.350;2023-05-07T00:51:09;29.55;;;20.50;;
24859;SDS011;12936;52.006;4.350;2023-05-07T00:53:38;29.70;;;20.63;;
24859;SDS011;12936;52.006;4.350;2023-05-07T00:56:06;25.15;;;19.52;;
24859;SDS011;12936;52.006;4.350;2023-05-07T00:58:34;27.02;;;20.25;;
24859;SDS011;12936;52.006;4.350;2023-05-07T01:01:04;29.80;;;20.20;;
24859;SDS011;12936;52.006;4.350;2023-05-07T01:03:32;26.42;;;20.65;;
24859;SDS011;12936;52.006;4.350;2023-05-07T01:06:02;27.35;;;19.35;;
24859;SDS011;12936;52.006;4.350;2023-05-07T01:08:31;26.30;;;19.48;;
24859;SDS011;12936;52.006;4.350;2023-05-07T01:11:01;25.30;;;19.33;;
24859;SDS011;12936;52.006;4.350;2023-05-07T01:13:29;24.75;;;18.67;;
24859;SDS011;12936;52.006;4.350;2023-05-07T01:16:01;25.85;;;18.65;;
24859;SDS011;12936;52.006;4.350;2023-05-07T01:18:31;25.88;;;18.00;;
24859;SDS011;12936;52.006;4.350;2023-05-07T01:20:59;24.13;;;18.13;;
24859;SDS011;12936;52.006;4.350;2023-05-07T01:23:33;26.00;;;18.70;;
24859;SDS011;12936;52.006;4.350;2023-05-07T01:26:02;24.50;;;18.17;;
24859;SDS011;12936;52.006;4.350;2023-05-07T01:28:31;24.63;;;18.65;;
24859;SDS011;12936;52.006;4.350;2023-05-07T01:31:00;21.17;;;17.00;;
24859;SDS011;12936;52.006;4.350;2023-05-07T01:33:31;24.63;;;17.98;;
24859;SDS011;12936;52.006;4.350;2023-05-07T01:36:02;20.98;;;17.45;;
24859;SDS011;12936;52.006;4.350;2023-05-07T01:38:34;21.75;;;17.80;;
24859;SDS011;12936;52.006;4.350;2023-05-07T01:41:05;24.70;;;18.27;;
24859;SDS011;12936;52.006;4.350;2023-05-07T01:43:34;27.05;;;18.80;;
24859;SDS011;12936;52.006;4.350;2023-05-07T01:46:02;26.80;;;18.77;;
24859;SDS011;12936;52.006;4.350;2023-05-07T01:48:33;24.38;;;18.13;;
24859;SDS011;12936;52.006;4.350;2023-05-07T01:51:02;25.48;;;20.02;;
24859;SDS011;12936;52.006;4.350;2023-05-07T01:53:38;25.25;;;18.95;;
24859;SDS011;12936;52.006;4.350;2023-05-07T01:56:09;24.70;;;19.17;;
24859;SDS011;12936;52.006;4.350;2023-05-07T01:58:38;26.55;;;18.98;;
24859;SDS011;12936;52.006;4.350;2023-05-07T02:01:08;25.70;;;18.33;;
24859;SDS011;12936;52.006;4.350;2023-05-07T02:03:36;25.95;;;19.20;;
24859;SDS011;12936;52.006;4.350;2023-05-07T02:06:04;25.17;;;19.05;;
24859;SDS011;12936;52.006;4.350;2023-05-07T02:08:33;22.83;;;18.90;;
24859;SDS011;12936;52.006;4.350;2023-05-07T02:11:02;24.48;;;18.20;;
24859;SDS011;12936;52.006;4.350;2023-05-07T02:13:31;24.63;;;17.90;;
24859;SDS011;12936;52.006;4.350;2023-05-07T02:16:01;23.95;;;18.35;;
24859;SDS011;12936;52.006;4.350;2023-05-07T02:18:30;25.15;;;18.52;;
24859;SDS011;12936;52.006;4.350;2023-05-07T02:20:59;23.60;;;17.15;;
24859;SDS011;12936;52.006;4.350;2023-05-07T02:23:28;25.02;;;17.88;;
24859;SDS011;12936;52.006;4.350;2023-05-07T02:25:57;22.70;;;17.92;;
24859;SDS011;12936;52.006;4.350;2023-05-07T02:28:26;21.52;;;17.75;;
24859;SDS011;12936;52.006;4.350;2023-05-07T02:31:02;23.80;;;17.88;;
24859;SDS011;12936;52.006;4.350;2023-05-07T02:33:30;23.75;;;17.02;;
24859;SDS011;12936;52.006;4.350;2023-05-07T02:36:07;21.70;;;16.35;;
24859;SDS011;12936;52.006;4.350;2023-05-07T02:38:36;23.52;;;17.50;;
24859;SDS011;12936;52.006;4.350;2023-05-07T02:41:04;23.70;;;17.85;;
24859;SDS011;12936;52.006;4.350;2023-05-07T02:43:34;27.98;;;17.48;;
24859;SDS011;12936;52.006;4.350;2023-05-07T02:46:05;22.13;;;16.80;;
24859;SDS011;12936;52.006;4.350;2023-05-07T02:48:35;22.10;;;17.83;;
24859;SDS011;12936;52.006;4.350;2023-05-07T02:51:05;21.42;;;18.02;;
24859;SDS011;12936;52.006;4.350;2023-05-07T02:53:33;22.85;;;17.40;;
24859;SDS011;12936;52.006;4.350;2023-05-07T02:56:02;26.58;;;18.13;;
24859;SDS011;12936;52.006;4.350;2023-05-07T02:58:30;22.35;;;17.92;;
24859;SDS011;12936;52.006;4.350;2023-05-07T03:01:02;22.35;;;17.27;;
24859;SDS011;12936;52.006;4.350;2023-05-07T03:03:31;23.98;;;17.67;;
24859;SDS011;12936;52.006;4.350;2023-05-07T03:05:59;22.58;;;17.90;;
24859;SDS011;12936;52.006;4.350;2023-05-07T03:08:28;22.45;;;17.77;;
24859;SDS011;12936;52.006;4.350;2023-05-07T03:11:01;21.67;;;18.30;;
24859;SDS011;12936;52.006;4.350;2023-05-07T03:13:30;20.77;;;17.88;;
24859;SDS011;12936;52.006;4.350;2023-05-07T03:15:59;20.60;;;17.73;;
24859;SDS011;12936;52.006;4.350;2023-05-07T03:18:33;25.45;;;17.88;;
24859;SDS011;12936;52.006;4.350;2023-05-07T03:21:02;22.73;;;17.77;;
24859;SDS011;12936;52.006;4.350;2023-05-07T03:23:32;21.42;;;17.40;;
24859;SDS011;12936;52.006;4.350;2023-05-07T03:26:01;24.33;;;18.60;;
24859;SDS011;12936;52.006;4.350;2023-05-07T03:28:35;22.38;;;17.48;;
24859;SDS011;12936;52.006;4.350;2023-05-07T03:31:04;21.38;;;17.20;;
24859;SDS011;12936;52.006;4.350;2023-05-07T03:33:34;20.23;;;16.83;;
24859;SDS011;12936;52.006;4.350;2023-05-07T03:36:02;22.08;;;18.33;;
24859;SDS011;12936;52.006;4.350;2023-05-07T03:38:31;23.40;;;17.70;;
24859;SDS011;12936;52.006;4.350;2023-05-07T03:41:01;21.42;;;17.38;;
24859;SDS011;12936;52.006;4.350;2023-05-07T03:43:49;20.45;;;17.83;;
24859;SDS011;12936;52.006;4.350;2023-05-07T03:46:17;20.25;;;17.27;;
24859;SDS011;12936;52.006;4.350;2023-05-07T03:48:55;22.52;;;16.98;;
24859;SDS011;12936;52.006;4.350;2023-05-07T03:51:24;23.02;;;17.77;;
24859;SDS011;12936;52.006;4.350;2023-05-07T03:53:52;20.80;;;16.92;;
24859;SDS011;12936;52.006;4.350;2023-05-07T03:56:23;19.50;;;16.70;;
24859;SDS011;12936;52.006;4.350;2023-05-07T03:58:53;19.27;;;17.08;;
24859;SDS011;12936;52.006;4.350;2023-05-07T04:01:22;20.58;;;16.52;;
24859;SDS011;12936;52.006;4.350;2023-05-07T04:03:55;22.23;;;16.55;;
24859;SDS011;12936;52.006;4.350;2023-05-07T04:06:24;16.73;;;15.02;;
24859;SDS011;12936;52.006;4.350;2023-05-07T04:08:53;21.50;;;15.40;;
24859;SDS011;12936;52.006;4.350;2023-05-07T04:11:23;18.88;;;16.05;;
24859;SDS011;12936;52.006;4.350;2023-05-07T04:13:52;19.77;;;15.93;;
24859;SDS011;12936;52.006;4.350;2023-05-07T04:16:20;20.30;;;15.70;;
24859;SDS011;12936;52.006;4.350;2023-05-07T04:18:53;18.90;;;14.88;;
24859;SDS011;12936;52.006;4.350;2023-05-07T04:21:22;18.40;;;15.05;;
24859;SDS011;12936;52.006;4.350;2023-05-07T04:23:50;19.08;;;16.27;;
24859;SDS011;12936;52.006;4.350;2023-05-07T04:26:18;19.95;;;16.52;;
24859;SDS011;12936;52.006;4.350;2023-05-07T04:28:51;17.85;;;15.60;;
24859;SDS011;12936;52.006;4.350;2023-05-07T04:31:20;17.58;;;15.52;;
24859;SDS011;12936;52.006;4.350;2023-05-07T04:33:50;18.70;;;15.07;;
24859;SDS011;12936;52.006;4.350;2023-05-07T04:36:20;19.55;;;16.00;;
24859;SDS011;12936;52.006;4.350;2023-05-07T04:38:50;19.20;;;15.75;;
24859;SDS011;12936;52.006;4.350;2023-05-07T04:41:18;18.45;;;15.80;;
24859;SDS011;12936;52.006;4.350;2023-05-07T04:43:46;16.98;;;14.63;;
24859;SDS011;12936;52.006;4.350;2023-05-07T04:46:15;17.40;;;14.75;;
24859;SDS011;12936;52.006;4.350;2023-05-07T04:48:43;21.55;;;15.05;;
24859;SDS011;12936;52.006;4.350;2023-05-07T04:51:11;18.65;;;14.05;;
24859;SDS011;12936;52.006;4.350;2023-05-07T04:53:41;18.80;;;15.75;;
24859;SDS011;12936;52.006;4.350;2023-05-07T04:56:17;18.20;;;15.18;;
24859;SDS011;12936;52.006;4.350;2023-05-07T04:58:45;17.73;;;14.88;;
24859;SDS011;12936;52.006;4.350;2023-05-07T05:01:17;16.25;;;14.50;;
24859;SDS011;12936;52.006;4.350;2023-05-07T05:03:47;16.42;;;14.25;;
24859;SDS011;12936;52.006;4.350;2023-05-07T05:06:17;16.58;;;14.60;;
24859;SDS011;12936;52.006;4.350;2023-05-07T05:08:47;16.90;;;14.77;;
24859;SDS011;12936;52.006;4.350;2023-05-07T05:11:15;22.42;;;15.75;;
24859;SDS011;12936;52.006;4.350;2023-05-07T05:13:43;17.15;;;14.35;;
24859;SDS011;12936;52.006;4.350;2023-05-07T05:16:13;16.83;;;14.57;;
24859;SDS011;12936;52.006;4.350;2023-05-07T05:18:41;15.85;;;14.05;;
24859;SDS011;12936;52.006;4.350;2023-05-07T05:21:09;17.98;;;14.02;;
24859;SDS011;12936;52.006;4.350;2023-05-07T05:23:37;17.00;;;13.82;;
24859;SDS011;12936;52.006;4.350;2023-05-07T05:26:07;16.42;;;14.20;;
24859;SDS011;12936;52.006;4.350;2023-05-07T05:28:34;17.30;;;13.77;;
24859;SDS011;12936;52.006;4.350;2023-05-07T05:31:02;17.42;;;13.75;;
24859;SDS011;12936;52.006;4.350;2023-05-07T05:33:31;18.73;;;13.07;;
24859;SDS011;12936;52.006;4.350;2023-05-07T05:35:59;15.40;;;13.13;;
24859;SDS011;12936;52.006;4.350;2023-05-07T05:38:27;14.82;;;13.23;;
24859;SDS011;12936;52.006;4.350;2023-05-07T05:40:55;17.40;;;13.63;;
24859;SDS011;12936;52.006;4.350;2023-05-07T05:43:24;17.50;;;12.98;;
24859;SDS011;12936;52.006;4.350;2023-05-07T05:45:52;15.13;;;13.50;;
24859;SDS011;12936;52.006;4.350;2023-05-07T05:48:20;15.75;;;13.27;;
24859;SDS011;12936;52.006;4.350;2023-05-07T05:50:48;14.75;;;13.18;;
24859;SDS011;12936;52.006;4.350;2023-05-07T05:53:16;18.38;;;14.02;;
24859;SDS011;12936;52.006;4.350;2023-05-07T05:55:45;16.67;;;13.15;;
24859;SDS011;12936;52.006;4.350;2023-05-07T05:58:13;15.20;;;12.98;;
24859;SDS011;12936;52.006;4.350;2023-05-07T06:00:43;15.00;;;13.27;;
24859;SDS011;12936;52.006;4.350;2023-05-07T06:03:11;15.73;;;14.05;;
24859;SDS011;12936;52.006;4.350;2023-05-07T06:05:39;16.00;;;13.10;;
24859;SDS011;12936;52.006;4.350;2023-05-07T06:08:07;13.90;;;12.30;;
24859;SDS011;12936;52.006;4.350;2023-05-07T06:10:35;16.20;;;12.70;;
24859;SDS011;12936;52.006;4.350;2023-05-07T06:13:04;16.20;;;13.02;;
24859;SDS011;12936;52.006;4.350;2023-05-07T06:15:32;17.45;;;13.43;;
24859;SDS011;12936;52.006;4.350;2023-05-07T06:18:02;15.90;;;13.25;;
24859;SDS011;12936;52.006;4.350;2023-05-07T06:20:30;13.88;;;11.95;;
24859;SDS011;12936;52.006;4.350;2023-05-07T06:22:58;14.93;;;12.38;;
24859;SDS011;12936;52.006;4.350;2023-05-07T06:25:25;16.00;;;12.80;;
24859;SDS011;12936;52.006;4.350;2023-05-07T06:27:53;17.65;;;12.77;;
24859;SDS011;12936;52.006;4.350;2023-05-07T06:30:21;16.05;;;13.00;;
24859;SDS011;12936;52.006;4.350;2023-05-07T06:32:49;15.90;;;12.60;;
24859;SDS011;12936;52.006;4.350;2023-05-07T06:35:19;15.80;;;13.60;;
24859;SDS011;12936;52.006;4.350;2023-05-07T06:37:47;14.52;;;12.93;;
24859;SDS011;12936;52.006;4.350;2023-05-07T06:40:15;14.55;;;13.05;;
24859;SDS011;12936;52.006;4.350;2023-05-07T06:42:43;14.93;;;13.02;;
24859;SDS011;12936;52.006;4.350;2023-05-07T06:45:11;14.57;;;12.68;;
24859;SDS011;12936;52.006;4.350;2023-05-07T06:47:39;17.38;;;13.48;;
24859;SDS011;12936;52.006;4.350;2023-05-07T06:50:08;13.85;;;12.32;;
24859;SDS011;12936;52.006;4.350;2023-05-07T06:52:38;16.48;;;13.98;;
24859;SDS011;12936;52.006;4.350;2023-05-07T06:55:06;13.63;;;12.07;;
24859;SDS011;12936;52.006;4.350;2023-05-07T06:57:35;15.45;;;12.40;;
24859;SDS011;12936;52.006;4.350;2023-05-07T07:00:03;14.25;;;12.15;;
24859;SDS011;12936;52.006;4.350;2023-05-07T07:02:33;14.35;;;12.25;;
24859;SDS011;12936;52.006;4.350;2023-05-07T07:05:01;17.30;;;12.13;;
24859;SDS011;12936;52.006;4.350;2023-05-07T07:07:29;17.92;;;11.88;;
24859;SDS011;12936;52.006;4.350;2023-05-07T07:09:58;15.52;;;11.27;;
24859;SDS011;12936;52.006;4.350;2023-05-07T07:12:27;14.52;;;11.73;;
24859;SDS011;12936;52.006;4.350;2023-05-07T07:14:56;13.48;;;11.63;;
24859;SDS011;12936;52.006;4.350;2023-05-07T07:17:24;13.02;;;11.25;;
24859;SDS011;12936;52.006;4.350;2023-05-07T07:19:52;17.30;;;12.05;;
24859;SDS011;12936;52.006;4.350;2023-05-07T07:22:20;14.43;;;11.27;;
24859;SDS011;12936;52.006;4.350;2023-05-07T07:24:47;13.75;;;10.82;;
24859;SDS011;12936;52.006;4.350;2023-05-07T07:27:18;12.88;;;11.50;;
24859;SDS011;12936;52.006;4.350;2023-05-07T07:29:48;14.38;;;11.15;;
24859;SDS011;12936;52.006;4.350;2023-05-07T07:32:16;15.55;;;12.13;;
24859;SDS011;12936;52.006;4.350;2023-05-07T07:34:44;15.70;;;10.90;;
24859;SDS011;12936;52.006;4.350;2023-05-07T07:37:12;14.27;;;11.23;;
24859;SDS011;12936;52.006;4.350;2023-05-07T07:39:40;16.73;;;10.80;;
24859;SDS011;12936;52.006;4.350;2023-05-07T07:42:08;14.27;;;10.57;;
24859;SDS011;12936;52.006;4.350;2023-05-07T07:44:37;15.23;;;11.23;;
24859;SDS011;12936;52.006;4.350;2023-05-07T07:47:06;15.68;;;10.60;;
24859;SDS011;12936;52.006;4.350;2023-05-07T07:49:35;16.42;;;10.85;;
24859;SDS011;12936;52.006;4.350;2023-05-07T07:52:03;15.95;;;10.82;;
24859;SDS011;12936;52.006;4.350;2023-05-07T07:54:31;11.23;;;9.45;;
24859;SDS011;12936;52.006;4.350;2023-05-07T07:56:59;14.75;;;9.63;;
24859;SDS011;12936;52.006;4.350;2023-05-07T07:59:27;12.40;;;9.63;;
24859;SDS011;12936;52.006;4.350;2023-05-07T08:01:56;16.02;;;11.35;;
24859;SDS011;12936;52.006;4.350;2023-05-07T08:04:24;14.45;;;10.73;;
24859;SDS011;12936;52.006;4.350;2023-05-07T08:06:53;14.75;;;10.20;;
24859;SDS011;12936;52.006;4.350;2023-05-07T08:09:22;13.77;;;10.23;;
24859;SDS011;12936;52.006;4.350;2023-05-07T08:11:50;13.88;;;9.93;;
24859;SDS011;12936;52.006;4.350;2023-05-07T08:14:18;13.20;;;10.38;;
24859;SDS011;12936;52.006;4.350;2023-05-07T08:16:46;11.75;;;9.85;;
24859;SDS011;12936;52.006;4.350;2023-05-07T08:19:15;13.57;;;9.65;;
24859;SDS011;12936;52.006;4.350;2023-05-07T08:21:43;15.27;;;9.38;;
24859;SDS011;12936;52.006;4.350;2023-05-07T08:24:13;14.40;;;10.00;;
24859;SDS011;12936;52.006;4.350;2023-05-07T08:26:43;13.77;;;9.80;;
24859;SDS011;12936;52.006;4.350;2023-05-07T08:29:13;12.48;;;8.88;;
24859;SDS011;12936;52.006;4.350;2023-05-07T08:31:41;11.32;;;8.95;;
24859;SDS011;12936;52.006;4.350;2023-05-07T08:34:09;15.48;;;9.55;;
24859;SDS011;12936;52.006;4.350;2023-05-07T08:36:38;12.52;;;9.57;;
24859;SDS011;12936;52.006;4.350;2023-05-07T08:39:07;16.85;;;9.63;;
24859;SDS011;12936;52.006;4.350;2023-05-07T08:41:36;11.38;;;6.45;;
24859;SDS011;12936;52.006;4.350;2023-05-07T08:44:04;11.75;;;7.40;;
24859;SDS011;12936;52.006;4.350;2023-05-07T08:46:38;10.27;;;6.93;;
24859;SDS011;12936;52.006;4.350;2023-05-07T08:49:08;8.68;;;6.32;;
24859;SDS011;12936;52.006;4.350;2023-05-07T08:51:36;10.50;;;6.35;;
24859;SDS011;12936;52.006;4.350;2023-05-07T08:54:06;10.25;;;5.97;;
24859;SDS011;12936;52.006;4.350;2023-05-07T08:56:34;10.82;;;6.40;;
24859;SDS011;12936;52.006;4.350;2023-05-07T08:59:02;10.68;;;7.00;;
24859;SDS011;12936;52.006;4.350;2023-05-07T09:01:30;11.88;;;7.70;;
24859;SDS011;12936;52.006;4.350;2023-05-07T09:03:58;10.45;;;7.43;;
24859;SDS011;12936;52.006;4.350;2023-05-07T09:06:26;9.68;;;6.40;;
24859;SDS011;12936;52.006;4.350;2023-05-07T09:08:54;10.52;;;6.70;;
24859;SDS011;12936;52.006;4.350;2023-05-07T09:11:25;8.05;;;5.68;;
24859;SDS011;12936;52.006;4.350;2023-05-07T09:13:54;8.75;;;6.03;;
24859;SDS011;12936;52.006;4.350;2023-05-07T09:16:24;11.65;;;6.22;;
24859;SDS011;12936;52.006;4.350;2023-05-07T09:18:53;10.65;;;6.65;;
24859;SDS011;12936;52.006;4.350;2023-05-07T09:21:22;9.20;;;6.63;;
24859;SDS011;12936;52.006;4.350;2023-05-07T09:23:50;9.75;;;6.20;;
24859;SDS011;12936;52.006;4.350;2023-05-07T09:26:20;12.68;;;7.82;;
24859;SDS011;12936;52.006;4.350;2023-05-07T09:28:50;13.88;;;7.45;;
24859;SDS011;12936;52.006;4.350;2023-05-07T09:31:20;15.18;;;9.10;;
24859;SDS011;12936;52.006;4.350;2023-05-07T09:33:50;13.57;;;8.73;;
24859;SDS011;12936;52.006;4.350;2023-05-07T09:36:19;13.20;;;8.55;;
24859;SDS011;12936;52.006;4.350;2023-05-07T09:38:48;13.75;;;8.27;;
24859;SDS011;12936;52.006;4.350;2023-05-07T09:41:17;12.13;;;7.90;;
24859;SDS011;12936;52.006;4.350;2023-05-07T09:43:47;12.30;;;7.10;;
24859;SDS011;12936;52.006;4.350;2023-05-07T09:46:24;12.82;;;7.13;;
24859;SDS011;12936;52.006;4.350;2023-05-07T09:48:57;9.82;;;6.55;;
24859;SDS011;12936;52.006;4.350;2023-05-07T09:51:29;10.00;;;6.38;;
24859;SDS011;12936;52.006;4.350;2023-05-07T09:54:01;10.45;;;6.07;;
24859;SDS011;12936;52.006;4.350;2023-05-07T09:56:31;9.35;;;7.22;;
24859;SDS011;12936;52.006;4.350;2023-05-07T09:59:01;12.00;;;7.82;;
24859;SDS011;12936;52.006;4.350;2023-05-07T10:01:31;13.48;;;7.70;;
24859;SDS011;12936;52.006;4.350;2023-05-07T10:04:01;12.10;;;8.57;;
24859;SDS011;12936;52.006;4.350;2023-05-07T10:06:30;13.15;;;8.60;;
24859;SDS011;12936;52.006;4.350;2023-05-07T10:08:58;11.07;;;7.55;;
24859;SDS011;12936;52.006;4.350;2023-05-07T10:11:26;10.88;;;7.80;;
24859;SDS011;12936;52.006;4.350;2023-05-07T10:13:55;11.32;;;7.97;;
24859;SDS011;12936;52.006;4.350;2023-05-07T10:16:25;9.02;;;7.32;;
24859;SDS011;12936;52.006;4.350;2023-05-07T10:18:56;14.45;;;8.07;;
24859;SDS011;12936;52.006;4.350;2023-05-07T10:21:26;12.35;;;7.75;;
24859;SDS011;12936;52.006;4.350;2023-05-07T10:23:58;13.52;;;7.97;;
24859;SDS011;12936;52.006;4.350;2023-05-07T10:26:32;13.43;;;7.63;;
24859;SDS011;12936;52.006;4.350;2023-05-07T10:29:02;12.52;;;7.93;;
24859;SDS011;12936;52.006;4.350;2023-05-07T10:31:47;15.73;;;8.38;;
24859;SDS011;12936;52.006;4.350;2023-05-07T10:34:21;11.68;;;7.40;;
24859;SDS011;12936;52.006;4.350;2023-05-07T10:36:53;15.43;;;8.05;;
24859;SDS011;12936;52.006;4.350;2023-05-07T10:39:22;12.73;;;7.50;;
24859;SDS011;12936;52.006;4.350;2023-05-07T10:41:50;12.95;;;6.50;;
24859;SDS011;12936;52.006;4.350;2023-05-07T10:44:25;12.18;;;6.07;;
24859;SDS011;12936;52.006;4.350;2023-05-07T10:47:06;11.75;;;4.93;;
24859;SDS011;12936;52.006;4.350;2023-05-07T10:49:36;9.02;;;5.47;;
24859;SDS011;12936;52.006;4.350;2023-05-07T10:52:24;9.98;;;4.97;;
24859;SDS011;12936;52.006;4.350;2023-05-07T10:57:51;13.82;;;5.90;;
24859;SDS011;12936;52.006;4.350;2023-05-07T11:00:41;16.25;;;5.95;;
24859;SDS011;12936;52.006;4.350;2023-05-07T11:03:11;10.90;;;5.50;;
24859;SDS011;12936;52.006;4.350;2023-05-07T11:05:41;10.13;;;5.68;;
24859;SDS011;12936;52.006;4.350;2023-05-07T11:08:10;12.85;;;6.18;;
24859;SDS011;12936;52.006;4.350;2023-05-07T11:10:48;13.38;;;6.63;;
24859;SDS011;12936;52.006;4.350;2023-05-07T11:13:18;11.07;;;5.70;;
24859;SDS011;12936;52.006;4.350;2023-05-07T11:16:15;16.13;;;6.13;;
24859;SDS011;12936;52.006;4.350;2023-05-07T11:18:50;12.77;;;6.80;;
24859;SDS011;12936;52.006;4.350;2023-05-07T11:21:32;11.80;;;6.65;;
24859;SDS011;12936;52.006;4.350;2023-05-07T11:24:02;15.18;;;6.72;;
24859;SDS011;12936;52.006;4.350;2023-05-07T11:26:41;13.68;;;7.30;;
24859;SDS011;12936;52.006;4.350;2023-05-07T11:29:11;11.18;;;6.38;;
24859;SDS011;12936;52.006;4.350;2023-05-07T11:31:40;11.25;;;6.28;;
24859;SDS011;12936;52.006;4.350;2023-05-07T11:34:09;15.23;;;6.70;;
24859;SDS011;12936;52.006;4.350;2023-05-07T11:36:41;12.00;;;6.30;;
24859;SDS011;12936;52.006;4.350;2023-05-07T11:39:23;12.93;;;5.85;;
24859;SDS011;12936;52.006;4.350;2023-05-07T11:41:55;10.55;;;5.47;;
24859;SDS011;12936;52.006;4.350;2023-05-07T11:44:23;9.90;;;5.25;;
24859;SDS011;12936;52.006;4.350;2023-05-07T11:46:51;11.07;;;5.97;;
24859;SDS011;12936;52.006;4.350;2023-05-07T11:49:20;14.35;;;8.10;;
24859;SDS011;12936;52.006;4.350;2023-05-07T11:51:53;13.38;;;9.50;;
24859;SDS011;12936;52.006;4.350;2023-05-07T11:54:21;16.00;;;9.57;;
24859;SDS011;12936;52.006;4.350;2023-05-07T11:56:49;17.98;;;9.85;;
24859;SDS011;12936;52.006;4.350;2023-05-07T11:59:18;17.17;;;10.00;;
24859;SDS011;12936;52.006;4.350;2023-05-07T12:01:46;17.25;;;9.90;;
24859;SDS011;12936;52.006;4.350;2023-05-07T12:04:18;17.20;;;10.07;;
24859;SDS011;12936;52.006;4.350;2023-05-07T12:06:48;23.92;;;11.95;;
24859;SDS011;12936;52.006;4.350;2023-05-07T12:09:17;16.75;;;10.43;;
24859;SDS011;12936;52.006;4.350;2023-05-07T12:11:45;17.38;;;11.00;;
24859;SDS011;12936;52.006;4.350;2023-05-07T12:14:13;17.13;;;11.02;;
24859;SDS011;12936;52.006;4.350;2023-05-07T12:16:43;21.10;;;12.45;;
24859;SDS011;12936;52.006;4.350;2023-05-07T12:19:12;22.05;;;13.00;;
24859;SDS011;12936;52.006;4.350;2023-05-07T12:21:42;19.77;;;13.20;;
24859;SDS011;12936;52.006;4.350;2023-05-07T12:24:10;20.42;;;14.30;;
24859;SDS011;12936;52.006;4.350;2023-05-07T12:26:39;20.35;;;14.02;;
24859;SDS011;12936;52.006;4.350;2023-05-07T12:29:08;23.42;;;14.25;;
24859;SDS011;12936;52.006;4.350;2023-05-07T12:31:36;21.63;;;15.35;;
24859;SDS011;12936;52.006;4.350;2023-05-07T12:34:07;20.73;;;14.50;;
24859;SDS011;12936;52.006;4.350;2023-05-07T12:36:38;24.83;;;15.15;;
24859;SDS011;12936;52.006;4.350;2023-05-07T12:39:09;21.88;;;15.25;;
24859;SDS011;12936;52.006;4.350;2023-05-07T12:41:51;24.45;;;16.67;;
24859;SDS011;12936;52.006;4.350;2023-05-07T12:44:21;21.20;;;14.93;;
24859;SDS011;12936;52.006;4.350;2023-05-07T12:46:50;20.35;;;15.05;;
24859;SDS011;12936;52.006;4.350;2023-05-07T12:49:19;24.42;;;14.13;;
24859;SDS011;12936;52.006;4.350;2023-05-07T12:51:50;21.92;;;13.88;;
24859;SDS011;12936;52.006;4.350;2023-05-07T12:54:29;20.00;;;14.18;;
24859;SDS011;12936;52.006;4.350;2023-05-07T12:57:01;21.88;;;14.88;;
24859;SDS011;12936;52.006;4.350;2023-05-07T12:59:30;21.58;;;16.05;;
24859;SDS011;12936;52.006;4.350;2023-05-07T13:01:59;23.38;;;16.13;;
24859;SDS011;12936;52.006;4.350;2023-05-07T13:04:27;20.83;;;15.03;;
24859;SDS011;12936;52.006;4.350;2023-05-07T13:06:55;24.00;;;16.50;;
24859;SDS011;12936;52.006;4.350;2023-05-07T13:09:24;23.52;;;16.38;;
24859;SDS011;12936;52.006;4.350;2023-05-07T13:11:53;22.63;;;16.83;;
24859;SDS011;12936;52.006;4.350;2023-05-07T13:14:21;19.65;;;16.25;;
24859;SDS011;12936;52.006;4.350;2023-05-07T13:16:49;22.75;;;16.42;;
24859;SDS011;12936;52.006;4.350;2023-05-07T13:19:17;22.23;;;16.35;;
24859;SDS011;12936;52.006;4.350;2023-05-07T13:21:45;20.45;;;16.88;;
24859;SDS011;12936;52.006;4.350;2023-05-07T13:24:14;25.30;;;16.98;;
24859;SDS011;12936;52.006;4.350;2023-05-07T13:26:42;21.05;;;16.20;;
24859;SDS011;12936;52.006;4.350;2023-05-07T13:29:12;23.95;;;17.02;;
24859;SDS011;12936;52.006;4.350;2023-05-07T13:31:41;24.02;;;16.60;;
24859;SDS011;12936;52.006;4.350;2023-05-07T13:34:10;22.92;;;16.50;;
24859;SDS011;12936;52.006;4.350;2023-05-07T13:36:38;27.98;;;16.63;;
24859;SDS011;12936;52.006;4.350;2023-05-07T13:39:08;26.35;;;16.92;;
24859;SDS011;12936;52.006;4.350;2023-05-07T13:41:36;23.90;;;16.85;;
24859;SDS011;12936;52.006;4.350;2023-05-07T13:44:04;24.75;;;16.27;;
24859;SDS011;12936;52.006;4.350;2023-05-07T13:46:33;24.85;;;16.52;;
24859;SDS011;12936;52.006;4.350;2023-05-07T13:49:01;24.48;;;16.30;;
24859;SDS011;12936;52.006;4.350;2023-05-07T13:51:29;24.15;;;16.88;;
24859;SDS011;12936;52.006;4.350;2023-05-07T13:53:58;24.08;;;17.30;;
24859;SDS011;12936;52.006;4.350;2023-05-07T13:56:26;24.60;;;16.63;;
24859;SDS011;12936;52.006;4.350;2023-05-07T13:58:57;24.33;;;17.40;;
24859;SDS011;12936;52.006;4.350;2023-05-07T14:01:26;28.15;;;16.08;;
24859;SDS011;12936;52.006;4.350;2023-05-07T14:03:56;26.90;;;18.17;;
24859;SDS011;12936;52.006;4.350;2023-05-07T14:06:25;25.63;;;17.52;;
24859;SDS011;12936;52.006;4.350;2023-05-07T14:08:53;23.92;;;17.83;;
24859;SDS011;12936;52.006;4.350;2023-05-07T14:11:24;22.92;;;17.08;;
24859;SDS011;12936;52.006;4.350;2023-05-07T14:13:52;21.70;;;17.30;;
24859;SDS011;12936;52.006;4.350;2023-05-07T14:16:20;27.08;;;17.45;;
24859;SDS011;12936;52.006;4.350;2023-05-07T14:18:48;24.80;;;17.85;;
24859;SDS011;12936;52.006;4.350;2023-05-07T14:21:17;23.90;;;16.83;;
24859;SDS011;12936;52.006;4.350;2023-05-07T14:23:45;28.85;;;16.40;;
24859;SDS011;12936;52.006;4.350;2023-05-07T14:26:13;19.13;;;15.52;;
24859;SDS011;12936;52.006;4.350;2023-05-07T14:28:41;21.20;;;15.20;;
24859;SDS011;12936;52.006;4.350;2023-05-07T14:31:12;23.77;;;15.23;;
24859;SDS011;12936;52.006;4.350;2023-05-07T14:33:40;20.58;;;14.95;;
24859;SDS011;12936;52.006;4.350;2023-05-07T14:36:08;23.48;;;15.30;;
24859;SDS011;12936;52.006;4.350;2023-05-07T14:38:38;21.27;;;15.75;;
24859;SDS011;12936;52.006;4.350;2023-05-07T14:41:06;26.30;;;16.20;;
24859;SDS011;12936;52.006;4.350;2023-05-07T14:43:34;26.17;;;16.33;;